sensor_id;sensor_type;location;lat;lon;timestamp;P1;durP1;ratioP1;P2;durP2;ratioP2
3847;SDS011;1939;48.720;9.166;2023-05-07T00:00:05;5.90;;;4.23;;
3847;SDS011;1939;48.720;9.166;2023-05-07T00:02:33;6.63;;;4.70;;
3847;SDS011;1939;48.720;9.166;2023-05-07T00:04:58;6.47;;;5.23;;
3847;SDS011;1939;48.720;9.166;2023-05-07T00:07:23;25.47;;;7.00;;
3847;SDS011;1939;48.720;9.166;2023-05-07T00:09:49;6.47;;;4.80;;
3847;SDS011;1939;48.720;9.166;2023-05-07T00:12:14;6.00;;;4.50;;
3847;SDS011;1939;48.720;9.166;2023-05-07T00:14:39;11.00;;;4.70;;
3847;SDS011;1939;48.720;9.166;2023-05-07T00:17:05;10.30;;;4.87;;
3847;SDS011;1939;48.720;9.166;2023-05-07T00:19:30;6.57;;;4.27;;
3847;SDS011;1939;48.720;9.166;2023-05-07T00:21:55;4.83;;;4.30;;
3847;SDS011;1939;48.720;9.166;2023-05-07T00:24:21;6.03;;;4.50;;
3847;SDS011;1939;48.720;9.166;2023-05-07T00:26:46;11.07;;;5.33;;
3847;SDS011;1939;48.720;9.166;2023-05-07T00:29:12;8.07;;;4.83;;
3847;SDS011;1939;48.720;9.166;2023-05-07T00:31:37;7.00;;;4.60;;
3847;SDS011;1939;48.720;9.166;2023-05-07T00:34:02;6.93;;;4.80;;
3847;SDS011;1939;48.720;9.166;2023-05-07T00:36:27;13.30;;;4.57;;
3847;SDS011;1939;48.720;9.166;2023-05-07T00:38:54;9.57;;;4.17;;
3847;SDS011;1939;48.720;9.166;2023-05-07T00:41:20;8.03;;;4.30;;
3847;SDS011;1939;48.720;9.166;2023-05-07T00:43:45;5.20;;;3.97;;
3847;SDS011;1939;48.720;9.166;2023-05-07T00:46:10;5.60;;;4.83;;
3847;SDS011;1939;48.720;9.166;2023-05-07T00:48:37;8.50;;;4.57;;
3847;SDS011;1939;48.720;9.166;2023-05-07T00:51:02;6.50;;;4.83;;
3847;SDS011;1939;48.720;9.166;2023-05-07T00:53:27;6.83;;;4.70;;
3847;SDS011;1939;48.720;9.166;2023-05-07T00:55:53;7.00;;;4.90;;
3847;SDS011;1939;48.720;9.166;2023-05-07T00:58:18;6.10;;;4.80;;
3847;SDS011;1939;48.720;9.166;2023-05-07T01:00:44;5.47;;;4.87;;
3847;SDS011;1939;48.720;9.166;2023-05-07T01:03:10;8.83;;;4.97;;
3847;SDS011;1939;48.720;9.166;2023-05-07T01:05:35;10.07;;;4.90;;
3847;SDS011;1939;48.720;9.166;2023-05-07T01:08:00;8.40;;;5.37;;
3847;SDS011;1939;48.720;9.166;2023-05-07T01:10:26;6.40;;;5.27;;
3847;SDS011;1939;48.720;9.166;2023-05-07T01:12:51;6.43;;;4.03;;
3847;SDS011;1939;48.720;9.166;2023-05-07T01:15:17;7.40;;;4.60;;
3847;SDS011;1939;48.720;9.166;2023-05-07T01:17:42;10.20;;;5.97;;
3847;SDS011;1939;48.720;9.166;2023-05-07T01:20:08;11.37;;;4.73;;
3847;SDS011;1939;48.720;9.166;2023-05-07T01:22:35;6.50;;;4.57;;
3847;SDS011;1939;48.720;9.166;2023-05-07T01:25:02;6.70;;;4.60;;
3847;SDS011;1939;48.720;9.166;2023-05-07T01:27:27;6.03;;;4.90;;
3847;SDS011;1939;48.720;9.166;2023-05-07T01:29:53;11.80;;;5.33;;
3847;SDS011;1939;48.720;9.166;2023-05-07T01:32:21;5.70;;;4.83;;
3847;SDS011;1939;48.720;9.166;2023-05-07T01:34:49;9.70;;;5.17;;
3847;SDS011;1939;48.720;9.166;2023-05-07T01:37:14;5.90;;;4.90;;
3847;SDS011;1939;48.720;9.166;2023-05-07T01:39:40;6.97;;;4.37;;
3847;SDS011;1939;48.720;9.166;2023-05-07T01:42:06;5.57;;;5.07;;
3847;SDS011;1939;48.720;9.166;2023-05-07T01:44:31;6.80;;;5.00;;
3847;SDS011;1939;48.720;9.166;2023-05-07T01:46:57;9.47;;;5.17;;
3847;SDS011;1939;48.720;9.166;2023-05-07T01:49:23;7.87;;;4.50;;
3847;SDS011;1939;48.720;9.166;2023-05-07T01:51:48;6.43;;;4.50;;
3847;SDS011;1939;48.720;9.166;2023-05-07T01:54:13;7.17;;;4.60;;
3847;SDS011;1939;48.720;9.166;2023-05-07T01:56:39;6.97;;;4.37;;
3847;SDS011;1939;48.720;9.166;2023-05-07T01:59:04;11.53;;;5.30;;
3847;SDS011;1939;48.720;9.166;2023-05-07T02:01:30;6.40;;;4.60;;
3847;SDS011;1939;48.720;9.166;2023-05-07T02:03:55;7.33;;;4.90;;
3847;SDS011;1939;48.720;9.166;2023-05-07T02:06:21;7.00;;;4.70;;
3847;SDS011;1939;48.720;9.166;2023-05-07T02:08:46;6.77;;;4.80;;
3847;SDS011;1939;48.720;9.166;2023-05-07T02:11:11;5.87;;;4.30;;
3847;SDS011;1939;48.720;9.166;2023-05-07T02:13:37;5.93;;;4.60;;
3847;SDS011;1939;48.720;9.166;2023-05-07T02:16:02;14.37;;;6.57;;
3847;SDS011;1939;48.720;9.166;2023-05-07T02:18:27;5.80;;;4.80;;
3847;SDS011;1939;48.720;9.166;2023-05-07T02:20:53;6.57;;;5.87;;
3847;SDS011;1939;48.720;9.166;2023-05-07T02:23:19;7.17;;;5.53;;
3847;SDS011;1939;48.720;9.166;2023-05-07T02:25:44;6.83;;;4.87;;
3847;SDS011;1939;48.720;9.166;2023-05-07T02:28:10;6.33;;;4.30;;
3847;SDS011;1939;48.720;9.166;2023-05-07T02:30:36;9.97;;;5.43;;
3847;SDS011;1939;48.720;9.166;2023-05-07T02:33:01;8.17;;;4.90;;
3847;SDS011;1939;48.720;9.166;2023-05-07T02:35:26;6.00;;;5.10;;
3847;SDS011;1939;48.720;9.166;2023-05-07T02:37:52;8.73;;;5.67;;
3847;SDS011;1939;48.720;9.166;2023-05-07T02:40:17;7.70;;;5.60;;
3847;SDS011;1939;48.720;9.166;2023-05-07T02:42:42;6.77;;;4.90;;
3847;SDS011;1939;48.720;9.166;2023-05-07T02:45:08;10.03;;;5.87;;
3847;SDS011;1939;48.720;9.166;2023-05-07T02:47:33;7.30;;;5.03;;
3847;SDS011;1939;48.720;9.166;2023-05-07T02:49:58;8.67;;;4.90;;
3847;SDS011;1939;48.720;9.166;2023-05-07T02:52:23;8.70;;;4.70;;
3847;SDS011;1939;48.720;9.166;2023-05-07T02:54:49;5.80;;;5.20;;
3847;SDS011;1939;48.720;9.166;2023-05-07T02:57:14;8.13;;;5.23;;
3847;SDS011;1939;48.720;9.166;2023-05-07T02:59:39;6.60;;;4.50;;
3847;SDS011;1939;48.720;9.166;2023-05-07T03:02:05;6.00;;;4.90;;
3847;SDS011;1939;48.720;9.166;2023-05-07T03:04:30;6.37;;;5.13;;
3847;SDS011;1939;48.720;9.166;2023-05-07T03:06:55;6.60;;;5.33;;
3847;SDS011;1939;48.720;9.166;2023-05-07T03:09:20;4.93;;;4.17;;
3847;SDS011;1939;48.720;9.166;2023-05-07T03:11:46;7.43;;;5.30;;
3847;SDS011;1939;48.720;9.166;2023-05-07T03:14:11;7.37;;;5.23;;
3847;SDS011;1939;48.720;9.166;2023-05-07T03:16:37;7.43;;;4.83;;
3847;SDS011;1939;48.720;9.166;2023-05-07T03:19:03;6.77;;;4.73;;
3847;SDS011;1939;48.720;9.166;2023-05-07T03:21:28;8.63;;;5.70;;
3847;SDS011;1939;48.720;9.166;2023-05-07T03:23:53;9.67;;;5.13;;
3847;SDS011;1939;48.720;9.166;2023-05-07T03:26:18;5.73;;;5.13;;
3847;SDS011;1939;48.720;9.166;2023-05-07T03:28:43;8.53;;;4.73;;
3847;SDS011;1939;48.720;9.166;2023-05-07T03:31:09;8.30;;;5.47;;
3847;SDS011;1939;48.720;9.166;2023-05-07T03:33:34;7.93;;;5.43;;
3847;SDS011;1939;48.720;9.166;2023-05-07T03:36:02;7.27;;;5.30;;
3847;SDS011;1939;48.720;9.166;2023-05-07T03:38:27;6.80;;;4.90;;
3847;SDS011;1939;48.720;9.166;2023-05-07T03:40:52;8.70;;;5.70;;
3847;SDS011;1939;48.720;9.166;2023-05-07T03:43:18;7.97;;;5.93;;
3847;SDS011;1939;48.720;9.166;2023-05-07T03:45:43;8.73;;;6.27;;
3847;SDS011;1939;48.720;9.166;2023-05-07T03:48:08;7.23;;;5.53;;
3847;SDS011;1939;48.720;9.166;2023-05-07T03:50:33;8.50;;;6.17;;
3847;SDS011;1939;48.720;9.166;2023-05-07T03:52:58;6.93;;;5.53;;
3847;SDS011;1939;48.720;9.166;2023-05-07T03:55:24;6.63;;;5.63;;
3847;SDS011;1939;48.720;9.166;2023-05-07T03:57:50;9.70;;;6.20;;
3847;SDS011;1939;48.720;9.166;2023-05-07T04:00:15;7.87;;;6.10;;
3847;SDS011;1939;48.720;9.166;2023-05-07T04:02:40;10.50;;;6.53;;
3847;SDS011;1939;48.720;9.166;2023-05-07T04:05:06;11.40;;;6.10;;
3847;SDS011;1939;48.720;9.166;2023-05-07T04:07:31;12.63;;;5.20;;
3847;SDS011;1939;48.720;9.166;2023-05-07T04:09:56;7.63;;;6.00;;
3847;SDS011;1939;48.720;9.166;2023-05-07T04:12:21;6.67;;;5.73;;
3847;SDS011;1939;48.720;9.166;2023-05-07T04:14:47;6.40;;;4.87;;
3847;SDS011;1939;48.720;9.166;2023-05-07T04:17:12;10.73;;;6.90;;
3847;SDS011;1939;48.720;9.166;2023-05-07T04:19:37;10.57;;;6.47;;
3847;SDS011;1939;48.720;9.166;2023-05-07T04:22:02;10.90;;;5.83;;
3847;SDS011;1939;48.720;9.166;2023-05-07T04:24:30;6.83;;;5.83;;
3847;SDS011;1939;48.720;9.166;2023-05-07T04:26:56;9.43;;;5.10;;
3847;SDS011;1939;48.720;9.166;2023-05-07T04:29:21;8.57;;;6.33;;
3847;SDS011;1939;48.720;9.166;2023-05-07T04:31:46;9.10;;;5.90;;
3847;SDS011;1939;48.720;9.166;2023-05-07T04:34:11;8.10;;;5.57;;
3847;SDS011;1939;48.720;9.166;2023-05-07T04:36:40;7.87;;;5.77;;
3847;SDS011;1939;48.720;9.166;2023-05-07T04:39:05;9.10;;;6.03;;
3847;SDS011;1939;48.720;9.166;2023-05-07T04:41:31;7.37;;;5.53;;
3847;SDS011;1939;48.720;9.166;2023-05-07T04:43:56;16.20;;;6.70;;
3847;SDS011;1939;48.720;9.166;2023-05-07T04:46:23;11.10;;;5.60;;
3847;SDS011;1939;48.720;9.166;2023-05-07T04:48:49;9.73;;;6.33;;
3847;SDS011;1939;48.720;9.166;2023-05-07T04:51:15;11.53;;;5.90;;
3847;SDS011;1939;48.720;9.166;2023-05-07T04:53:40;8.17;;;5.20;;
3847;SDS011;1939;48.720;9.166;2023-05-07T04:56:05;9.07;;;6.20;;
3847;SDS011;1939;48.720;9.166;2023-05-07T04:58:30;8.27;;;6.40;;
3847;SDS011;1939;48.720;9.166;2023-05-07T05:00:57;14.10;;;6.17;;
3847;SDS011;1939;48.720;9.166;2023-05-07T05:03:22;10.70;;;6.07;;
3847;SDS011;1939;48.720;9.166;2023-05-07T05:05:48;7.90;;;5.10;;
3847;SDS011;1939;48.720;9.166;2023-05-07T05:08:14;5.80;;;4.90;;
3847;SDS011;1939;48.720;9.166;2023-05-07T05:10:39;5.30;;;4.33;;
3847;SDS011;1939;48.720;9.166;2023-05-07T05:13:05;9.10;;;5.57;;
3847;SDS011;1939;48.720;9.166;2023-05-07T05:15:31;8.53;;;5.17;;
3847;SDS011;1939;48.720;9.166;2023-05-07T05:17:56;10.73;;;5.30;;
3847;SDS011;1939;48.720;9.166;2023-05-07T05:20:21;7.50;;;5.13;;
3847;SDS011;1939;48.720;9.166;2023-05-07T05:22:46;9.73;;;6.10;;
3847;SDS011;1939;48.720;9.166;2023-05-07T05:25:12;10.60;;;6.10;;
3847;SDS011;1939;48.720;9.166;2023-05-07T05:27:37;6.70;;;4.90;;
3847;SDS011;1939;48.720;9.166;2023-05-07T05:30:03;6.47;;;5.43;;
3847;SDS011;1939;48.720;9.166;2023-05-07T05:32:28;9.73;;;6.07;;
3847;SDS011;1939;48.720;9.166;2023-05-07T05:34:53;6.13;;;5.30;;
3847;SDS011;1939;48.720;9.166;2023-05-07T05:37:18;7.23;;;4.83;;
3847;SDS011;1939;48.720;9.166;2023-05-07T05:39:44;6.00;;;4.83;;
3847;SDS011;1939;48.720;9.166;2023-05-07T05:42:09;6.27;;;3.93;;
3847;SDS011;1939;48.720;9.166;2023-05-07T05:44:34;7.70;;;4.07;;
3847;SDS011;1939;48.720;9.166;2023-05-07T05:46:59;8.27;;;5.30;;
3847;SDS011;1939;48.720;9.166;2023-05-07T05:49:25;6.13;;;5.20;;
3847;SDS011;1939;48.720;9.166;2023-05-07T05:51:50;6.80;;;4.37;;
3847;SDS011;1939;48.720;9.166;2023-05-07T05:54:15;6.90;;;5.23;;
3847;SDS011;1939;48.720;9.166;2023-05-07T05:56:41;5.87;;;4.50;;
3847;SDS011;1939;48.720;9.166;2023-05-07T05:59:07;8.33;;;4.60;;
3847;SDS011;1939;48.720;9.166;2023-05-07T06:01:32;8.53;;;4.77;;
3847;SDS011;1939;48.720;9.166;2023-05-07T06:03:57;5.87;;;4.70;;
3847;SDS011;1939;48.720;9.166;2023-05-07T06:06:22;5.60;;;4.17;;
3847;SDS011;1939;48.720;9.166;2023-05-07T06:08:47;4.97;;;3.57;;
3847;SDS011;1939;48.720;9.166;2023-05-07T06:11:13;6.57;;;4.37;;
3847;SDS011;1939;48.720;9.166;2023-05-07T06:13:38;6.10;;;4.00;;
3847;SDS011;1939;48.720;9.166;2023-05-07T06:16:03;4.03;;;3.50;;
3847;SDS011;1939;48.720;9.166;2023-05-07T06:18:28;6.70;;;3.97;;
3847;SDS011;1939;48.720;9.166;2023-05-07T06:20:54;8.40;;;3.87;;
3847;SDS011;1939;48.720;9.166;2023-05-07T06:23:19;5.20;;;3.90;;
3847;SDS011;1939;48.720;9.166;2023-05-07T06:25:48;4.20;;;3.80;;
3847;SDS011;1939;48.720;9.166;2023-05-07T06:28:13;8.40;;;3.90;;
3847;SDS011;1939;48.720;9.166;2023-05-07T06:30:39;3.80;;;3.00;;
3847;SDS011;1939;48.720;9.166;2023-05-07T06:33:05;3.50;;;2.63;;
3847;SDS011;1939;48.720;9.166;2023-05-07T06:35:30;4.90;;;3.27;;
3847;SDS011;1939;48.720;9.166;2023-05-07T06:37:55;3.87;;;3.47;;
3847;SDS011;1939;48.720;9.166;2023-05-07T06:40:21;4.60;;;3.33;;
3847;SDS011;1939;48.720;9.166;2023-05-07T06:42:46;3.83;;;3.10;;
3847;SDS011;1939;48.720;9.166;2023-05-07T06:45:11;4.60;;;3.37;;
3847;SDS011;1939;48.720;9.166;2023-05-07T06:47:36;4.10;;;3.40;;
3847;SDS011;1939;48.720;9.166;2023-05-07T06:50:01;4.10;;;3.17;;
3847;SDS011;1939;48.720;9.166;2023-05-07T06:52:27;6.47;;;3.80;;
3847;SDS011;1939;48.720;9.166;2023-05-07T06:54:52;6.17;;;3.50;;
3847;SDS011;1939;48.720;9.166;2023-05-07T06:57:17;3.90;;;3.20;;
3847;SDS011;1939;48.720;9.166;2023-05-07T06:59:43;7.33;;;3.40;;
3847;SDS011;1939;48.720;9.166;2023-05-07T07:02:08;3.60;;;3.40;;
3847;SDS011;1939;48.720;9.166;2023-05-07T07:04:33;6.83;;;3.50;;
3847;SDS011;1939;48.720;9.166;2023-05-07T07:06:58;3.33;;;3.03;;
3847;SDS011;1939;48.720;9.166;2023-05-07T07:09:24;4.40;;;2.93;;
3847;SDS011;1939;48.720;9.166;2023-05-07T07:11:49;3.90;;;3.20;;
3847;SDS011;1939;48.720;9.166;2023-05-07T07:14:14;5.10;;;3.00;;
3847;SDS011;1939;48.720;9.166;2023-05-07T07:16:40;3.47;;;3.17;;
3847;SDS011;1939;48.720;9.166;2023-05-07T07:19:05;4.20;;;3.80;;
3847;SDS011;1939;48.720;9.166;2023-05-07T07:21:30;5.70;;;3.90;;
3847;SDS011;1939;48.720;9.166;2023-05-07T07:23:57;3.23;;;2.93;;
3847;SDS011;1939;48.720;9.166;2023-05-07T07:26:22;8.23;;;4.07;;
3847;SDS011;1939;48.720;9.166;2023-05-07T07:28:47;3.00;;;2.70;;
3847;SDS011;1939;48.720;9.166;2023-05-07T07:31:12;4.70;;;2.83;;
3847;SDS011;1939;48.720;9.166;2023-05-07T07:33:38;4.10;;;3.50;;
3847;SDS011;1939;48.720;9.166;2023-05-07T07:36:04;3.53;;;2.93;;
3847;SDS011;1939;48.720;9.166;2023-05-07T07:38:30;3.30;;;3.00;;
3847;SDS011;1939;48.720;9.166;2023-05-07T07:40:55;3.47;;;3.03;;
3847;SDS011;1939;48.720;9.166;2023-05-07T07:43:21;3.80;;;2.70;;
3847;SDS011;1939;48.720;9.166;2023-05-07T07:45:46;3.70;;;2.83;;
3847;SDS011;1939;48.720;9.166;2023-05-07T07:48:11;3.03;;;2.77;;
3847;SDS011;1939;48.720;9.166;2023-05-07T07:50:36;5.00;;;3.13;;
3847;SDS011;1939;48.720;9.166;2023-05-07T07:53:02;4.50;;;3.10;;
3847;SDS011;1939;48.720;9.166;2023-05-07T07:55:27;2.90;;;2.70;;
3847;SDS011;1939;48.720;9.166;2023-05-07T07:57:52;4.97;;;2.77;;
3847;SDS011;1939;48.720;9.166;2023-05-07T08:00:18;4.40;;;3.33;;
3847;SDS011;1939;48.720;9.166;2023-05-07T08:02:43;3.67;;;3.37;;
3847;SDS011;1939;48.720;9.166;2023-05-07T08:05:08;4.07;;;2.90;;
3847;SDS011;1939;48.720;9.166;2023-05-07T08:07:34;8.53;;;3.50;;
3847;SDS011;1939;48.720;9.166;2023-05-07T08:09:59;3.10;;;2.80;;
3847;SDS011;1939;48.720;9.166;2023-05-07T08:12:24;2.87;;;2.67;;
3847;SDS011;1939;48.720;9.166;2023-05-07T08:14:49;4.10;;;3.00;;
3847;SDS011;1939;48.720;9.166;2023-05-07T08:17:15;2.10;;;2.00;;
3847;SDS011;1939;48.720;9.166;2023-05-07T08:19:41;3.67;;;2.50;;
3847;SDS011;1939;48.720;9.166;2023-05-07T08:22:06;4.30;;;2.80;;
3847;SDS011;1939;48.720;9.166;2023-05-07T08:24:31;2.80;;;2.60;;
3847;SDS011;1939;48.720;9.166;2023-05-07T08:26:56;3.03;;;2.80;;
3847;SDS011;1939;48.720;9.166;2023-05-07T08:29:22;2.93;;;2.53;;
3847;SDS011;1939;48.720;9.166;2023-05-07T08:31:47;2.83;;;2.50;;
3847;SDS011;1939;48.720;9.166;2023-05-07T08:34:12;3.30;;;2.57;;
3847;SDS011;1939;48.720;9.166;2023-05-07T08:36:37;2.70;;;2.50;;
3847;SDS011;1939;48.720;9.166;2023-05-07T08:39:03;2.83;;;2.63;;
3847;SDS011;1939;48.720;9.166;2023-05-07T08:41:28;3.00;;;2.70;;
3847;SDS011;1939;48.720;9.166;2023-05-07T08:43:54;3.10;;;2.80;;
3847;SDS011;1939;48.720;9.166;2023-05-07T08:46:22;2.50;;;2.20;;
3847;SDS011;1939;48.720;9.166;2023-05-07T08:48:50;2.17;;;2.07;;
3847;SDS011;1939;48.720;9.166;2023-05-07T08:51:17;2.53;;;2.30;;
3847;SDS011;1939;48.720;9.166;2023-05-07T08:53:43;2.00;;;1.90;;
3847;SDS011;1939;48.720;9.166;2023-05-07T08:56:08;2.43;;;2.23;;
3847;SDS011;1939;48.720;9.166;2023-05-07T08:58:34;2.40;;;2.20;;
3847;SDS011;1939;48.720;9.166;2023-05-07T09:01:00;2.53;;;2.33;;
3847;SDS011;1939;48.720;9.166;2023-05-07T09:03:27;3.27;;;3.00;;
3847;SDS011;1939;48.720;9.166;2023-05-07T09:05:52;7.00;;;3.03;;
3847;SDS011;1939;48.720;9.166;2023-05-07T09:08:18;5.10;;;2.90;;
3847;SDS011;1939;48.720;9.166;2023-05-07T09:10:43;2.63;;;2.43;;
3847;SDS011;1939;48.720;9.166;2023-05-07T09:13:09;4.07;;;3.30;;
3847;SDS011;1939;48.720;9.166;2023-05-07T09:15:38;3.63;;;3.33;;
3847;SDS011;1939;48.720;9.166;2023-05-07T09:18:03;3.13;;;2.83;;
3847;SDS011;1939;48.720;9.166;2023-05-07T09:20:30;6.90;;;2.80;;
3847;SDS011;1939;48.720;9.166;2023-05-07T09:22:55;2.70;;;2.50;;
3847;SDS011;1939;48.720;9.166;2023-05-07T09:25:30;3.63;;;2.23;;
3847;SDS011;1939;48.720;9.166;2023-05-07T09:27:56;3.33;;;2.30;;
3847;SDS011;1939;48.720;9.166;2023-05-07T09:30:21;3.10;;;2.10;;
3847;SDS011;1939;48.720;9.166;2023-05-07T09:32:46;3.93;;;2.60;;
3847;SDS011;1939;48.720;9.166;2023-05-07T09:35:15;2.60;;;2.40;;
3847;SDS011;1939;48.720;9.166;2023-05-07T09:37:41;3.00;;;2.80;;
3847;SDS011;1939;48.720;9.166;2023-05-07T09:40:07;2.17;;;2.03;;
3847;SDS011;1939;48.720;9.166;2023-05-07T09:42:34;3.17;;;2.13;;
3847;SDS011;1939;48.720;9.166;2023-05-07T09:44:59;2.30;;;2.07;;
3847;SDS011;1939;48.720;9.166;2023-05-07T09:47:24;2.27;;;2.07;;
3847;SDS011;1939;48.720;9.166;2023-05-07T09:49:53;2.17;;;1.83;;
3847;SDS011;1939;48.720;9.166;2023-05-07T09:52:20;5.33;;;2.27;;
3847;SDS011;1939;48.720;9.166;2023-05-07T09:54:46;2.43;;;2.33;;
3847;SDS011;1939;48.720;9.166;2023-05-07T09:57:12;5.83;;;2.53;;
3847;SDS011;1939;48.720;9.166;2023-05-07T09:59:38;4.90;;;2.77;;
3847;SDS011;1939;48.720;9.166;2023-05-07T10:02:07;3.60;;;2.57;;
3847;SDS011;1939;48.720;9.166;2023-05-07T10:04:35;3.27;;;2.33;;
3847;SDS011;1939;48.720;9.166;2023-05-07T10:07:00;1.80;;;1.70;;
3847;SDS011;1939;48.720;9.166;2023-05-07T10:09:26;4.47;;;2.30;;
3847;SDS011;1939;48.720;9.166;2023-05-07T10:11:51;2.47;;;2.27;;
3847;SDS011;1939;48.720;9.166;2023-05-07T10:14:17;3.87;;;2.27;;
3847;SDS011;1939;48.720;9.166;2023-05-07T10:16:44;2.43;;;2.23;;
3847;SDS011;1939;48.720;9.166;2023-05-07T10:19:09;2.80;;;2.20;;
3847;SDS011;1939;48.720;9.166;2023-05-07T10:21:38;2.50;;;2.30;;
3847;SDS011;1939;48.720;9.166;2023-05-07T10:26:31;3.20;;;2.77;;
3847;SDS011;1939;48.720;9.166;2023-05-07T10:28:58;6.73;;;2.37;;
3847;SDS011;1939;48.720;9.166;2023-05-07T10:34:12;3.87;;;2.27;;
3847;SDS011;1939;48.720;9.166;2023-05-07T10:36:38;2.63;;;2.43;;
3847;SDS011;1939;48.720;9.166;2023-05-07T10:39:04;4.93;;;2.23;;
3847;SDS011;1939;48.720;9.166;2023-05-07T10:41:30;3.27;;;2.20;;
3847;SDS011;1939;48.720;9.166;2023-05-07T10:43:55;3.27;;;2.00;;
3847;SDS011;1939;48.720;9.166;2023-05-07T10:46:21;2.50;;;2.30;;
3847;SDS011;1939;48.720;9.166;2023-05-07T10:51:28;3.30;;;2.77;;
3847;SDS011;1939;48.720;9.166;2023-05-07T10:56:35;4.03;;;2.67;;
3847;SDS011;1939;48.720;9.166;2023-05-07T11:01:57;2.77;;;2.33;;
3847;SDS011;1939;48.720;9.166;2023-05-07T11:04:22;4.33;;;2.63;;
3847;SDS011;1939;48.720;9.166;2023-05-07T11:12:15;3.23;;;2.50;;
3847;SDS011;1939;48.720;9.166;2023-05-07T11:17:06;2.40;;;2.20;;
3847;SDS011;1939;48.720;9.166;2023-05-07T11:19:47;6.33;;;2.57;;
3847;SDS011;1939;48.720;9.166;2023-05-07T11:24:57;6.10;;;2.47;;
3847;SDS011;1939;48.720;9.166;2023-05-07T11:27:24;4.97;;;2.33;;
3847;SDS011;1939;48.720;9.166;2023-05-07T11:29:49;2.43;;;2.33;;
3847;SDS011;1939;48.720;9.166;2023-05-07T11:32:15;3.90;;;2.40;;
3847;SDS011;1939;48.720;9.166;2023-05-07T11:34:40;4.23;;;2.60;;
3847;SDS011;1939;48.720;9.166;2023-05-07T11:37:06;4.63;;;2.30;;
3847;SDS011;1939;48.720;9.166;2023-05-07T11:39:31;3.60;;;2.23;;
3847;SDS011;1939;48.720;9.166;2023-05-07T11:41:58;4.37;;;2.70;;
3847;SDS011;1939;48.720;9.166;2023-05-07T11:44:23;2.73;;;2.53;;
3847;SDS011;1939;48.720;9.166;2023-05-07T11:46:49;3.20;;;2.60;;
3847;SDS011;1939;48.720;9.166;2023-05-07T11:49:14;3.10;;;2.53;;
3847;SDS011;1939;48.720;9.166;2023-05-07T11:51:40;3.43;;;2.57;;
3847;SDS011;1939;48.720;9.166;2023-05-07T11:54:07;5.67;;;2.90;;
3847;SDS011;1939;48.720;9.166;2023-05-07T11:56:34;3.80;;;2.60;;
3847;SDS011;1939;48.720;9.166;2023-05-07T11:58:59;5.30;;;2.67;;
3847;SDS011;1939;48.720;9.166;2023-05-07T12:01:24;2.50;;;2.30;;
3847;SDS011;1939;48.720;9.166;2023-05-07T12:03:50;6.10;;;2.57;;
3847;SDS011;1939;48.720;9.166;2023-05-07T12:06:15;2.20;;;2.00;;
3847;SDS011;1939;48.720;9.166;2023-05-07T12:08:41;2.80;;;2.60;;
3847;SDS011;1939;48.720;9.166;2023-05-07T12:11:07;4.60;;;2.73;;
3847;SDS011;1939;48.720;9.166;2023-05-07T12:13:33;4.47;;;2.40;;
3847;SDS011;1939;48.720;9.166;2023-05-07T12:15:58;6.20;;;2.67;;
3847;SDS011;1939;48.720;9.166;2023-05-07T12:18:24;5.10;;;3.80;;
3847;SDS011;1939;48.720;9.166;2023-05-07T12:20:50;3.87;;;3.33;;
3847;SDS011;1939;48.720;9.166;2023-05-07T12:23:15;6.07;;;3.03;;
3847;SDS011;1939;48.720;9.166;2023-05-07T12:25:42;3.87;;;2.67;;
3847;SDS011;1939;48.720;9.166;2023-05-07T12:28:14;4.80;;;3.03;;
3847;SDS011;1939;48.720;9.166;2023-05-07T12:30:44;8.93;;;3.20;;
3847;SDS011;1939;48.720;9.166;2023-05-07T12:33:09;8.53;;;3.40;;
3847;SDS011;1939;48.720;9.166;2023-05-07T12:35:39;5.30;;;2.50;;
3847;SDS011;1939;48.720;9.166;2023-05-07T12:38:08;3.63;;;2.67;;
3847;SDS011;1939;48.720;9.166;2023-05-07T12:40:37;4.90;;;2.00;;
3847;SDS011;1939;48.720;9.166;2023-05-07T12:43:02;6.00;;;2.30;;
3847;SDS011;1939;48.720;9.166;2023-05-07T12:45:27;10.73;;;1.90;;
3847;SDS011;1939;48.720;9.166;2023-05-07T12:47:53;4.73;;;1.43;;
3847;SDS011;1939;48.720;9.166;2023-05-07T12:50:18;8.03;;;1.37;;
3847;SDS011;1939;48.720;9.166;2023-05-07T12:52:44;3.40;;;1.50;;
3847;SDS011;1939;48.720;9.166;2023-05-07T12:55:11;15.47;;;3.47;;
3847;SDS011;1939;48.720;9.166;2023-05-07T12:57:38;23.97;;;4.00;;
3847;SDS011;1939;48.720;9.166;2023-05-07T13:00:04;12.53;;;3.13;;
3847;SDS011;1939;48.720;9.166;2023-05-07T13:02:32;10.27;;;2.67;;
3847;SDS011;1939;48.720;9.166;2023-05-07T13:04:58;7.93;;;2.30;;
3847;SDS011;1939;48.720;9.166;2023-05-07T13:07:24;5.17;;;2.13;;
3847;SDS011;1939;48.720;9.166;2023-05-07T13:09:49;6.83;;;2.63;;
3847;SDS011;1939;48.720;9.166;2023-05-07T13:12:15;5.53;;;3.67;;
3847;SDS011;1939;48.720;9.166;2023-05-07T13:14:40;17.17;;;4.60;;
3847;SDS011;1939;48.720;9.166;2023-05-07T13:17:05;5.53;;;3.50;;
3847;SDS011;1939;48.720;9.166;2023-05-07T13:19:30;7.27;;;3.80;;
3847;SDS011;1939;48.720;9.166;2023-05-07T13:21:56;11.50;;;3.80;;
3847;SDS011;1939;48.720;9.166;2023-05-07T13:24:21;7.73;;;4.00;;
3847;SDS011;1939;48.720;9.166;2023-05-07T13:26:46;4.43;;;3.20;;
3847;SDS011;1939;48.720;9.166;2023-05-07T13:29:11;4.70;;;2.50;;
3847;SDS011;1939;48.720;9.166;2023-05-07T13:31:36;7.67;;;3.00;;
3847;SDS011;1939;48.720;9.166;2023-05-07T13:34:02;6.43;;;3.80;;
3847;SDS011;1939;48.720;9.166;2023-05-07T13:36:27;5.10;;;2.60;;
3847;SDS011;1939;48.720;9.166;2023-05-07T13:38:53;5.15;;;3.10;;
3847;SDS011;1939;48.720;9.166;2023-05-07T13:41:18;3.10;;;2.40;;
3847;SDS011;1939;48.720;9.166;2023-05-07T13:43:44;3.40;;;1.70;;
3847;SDS011;1939;48.720;9.166;2023-05-07T13:46:09;7.20;;;2.83;;
3847;SDS011;1939;48.720;9.166;2023-05-07T13:48:34;7.80;;;3.63;;
3847;SDS011;1939;48.720;9.166;2023-05-07T13:50:59;9.43;;;2.47;;
3847;SDS011;1939;48.720;9.166;2023-05-07T13:53:25;5.70;;;2.43;;
3847;SDS011;1939;48.720;9.166;2023-05-07T13:55:50;3.40;;;3.00;;
3847;SDS011;1939;48.720;9.166;2023-05-07T13:58:15;7.23;;;3.90;;
3847;SDS011;1939;48.720;9.166;2023-05-07T14:00:40;7.00;;;3.47;;
3847;SDS011;1939;48.720;9.166;2023-05-07T14:03:06;6.40;;;4.03;;
3847;SDS011;1939;48.720;9.166;2023-05-07T14:05:31;8.10;;;4.63;;
3847;SDS011;1939;48.720;9.166;2023-05-07T14:07:56;5.50;;;3.90;;
3847;SDS011;1939;48.720;9.166;2023-05-07T14:10:22;5.20;;;3.10;;
3847;SDS011;1939;48.720;9.166;2023-05-07T14:12:47;9.30;;;3.80;;
3847;SDS011;1939;48.720;9.166;2023-05-07T14:15:13;8.30;;;3.80;;
3847;SDS011;1939;48.720;9.166;2023-05-07T14:17:38;5.83;;;3.77;;
3847;SDS011;1939;48.720;9.166;2023-05-07T14:20:04;9.77;;;4.27;;
3847;SDS011;1939;48.720;9.166;2023-05-07T14:22:31;8.70;;;4.53;;
3847;SDS011;1939;48.720;9.166;2023-05-07T14:24:56;14.17;;;7.60;;
3847;SDS011;1939;48.720;9.166;2023-05-07T14:27:21;10.20;;;4.67;;
3847;SDS011;1939;48.720;9.166;2023-05-07T14:29:46;12.00;;;5.37;;
3847;SDS011;1939;48.720;9.166;2023-05-07T14:32:16;10.43;;;4.50;;
3847;SDS011;1939;48.720;9.166;2023-05-07T14:34:41;11.33;;;3.70;;
3847;SDS011;1939;48.720;9.166;2023-05-07T14:37:06;6.50;;;4.47;;
3847;SDS011;1939;48.720;9.166;2023-05-07T14:39:31;10.63;;;5.10;;
3847;SDS011;1939;48.720;9.166;2023-05-07T14:41:57;6.23;;;4.67;;
3847;SDS011;1939;48.720;9.166;2023-05-07T14:44:22;5.03;;;4.33;;
3847;SDS011;1939;48.720;9.166;2023-05-07T14:46:47;9.03;;;4.57;;
3847;SDS011;1939;48.720;9.166;2023-05-07T14:49:13;7.30;;;4.17;;
3847;SDS011;1939;48.720;9.166;2023-05-07T14:51:42;10.00;;;5.67;;
3847;SDS011;1939;48.720;9.166;2023-05-07T14:54:07;8.10;;;5.03;;
3847;SDS011;1939;48.720;9.166;2023-05-07T14:56:33;9.23;;;4.70;;
3847;SDS011;1939;48.720;9.166;2023-05-07T14:59:00;5.50;;;4.43;;
3847;SDS011;1939;48.720;9.166;2023-05-07T15:01:25;7.23;;;5.00;;
3847;SDS011;1939;48.720;9.166;2023-05-07T15:03:50;8.87;;;5.40;;
3847;SDS011;1939;48.720;9.166;2023-05-07T15:06:15;8.33;;;6.63;;
3847;SDS011;1939;48.720;9.166;2023-05-07T15:08:41;10.20;;;7.30;;
3847;SDS011;1939;48.720;9.166;2023-05-07T15:11:06;8.73;;;5.23;;
3847;SDS011;1939;48.720;9.166;2023-05-07T15:13:31;8.13;;;4.50;;
3847;SDS011;1939;48.720;9.166;2023-05-07T15:15:56;6.77;;;5.37;;
3847;SDS011;1939;48.720;9.166;2023-05-07T15:18:22;10.33;;;5.83;;
3847;SDS011;1939;48.720;9.166;2023-05-07T15:20:47;9.73;;;6.03;;
3847;SDS011;1939;48.720;9.166;2023-05-07T15:23:12;6.03;;;4.83;;
3847;SDS011;1939;48.720;9.166;2023-05-07T15:25:39;13.23;;;4.60;;
3847;SDS011;1939;48.720;9.166;2023-05-07T15:28:04;7.23;;;4.93;;